createdAt,value
2023-05-05T00:00:40.068Z,21.30
2023-05-05T00:03:07.244Z,23.63
2023-05-05T00:05:34.120Z,27.75
2023-05-05T00:08:00.906Z,25.02
2023-05-05T00:10:27.988Z,22.15
2023-05-05T00:12:54.842Z,20.73
2023-05-05T00:15:21.815Z,23.30
2023-05-05T00:17:48.612Z,20.98
2023-05-05T00:20:15.401Z,26.67
2023-05-05T00:22:42.147Z,25.20
2023-05-05T00:25:09.209Z,20.60
2023-05-05T00:27:36.033Z,20.35
2023-05-05T00:30:03.470Z,22.77
2023-05-05T00:32:30.317Z,22.92
2023-05-05T00:34:57.103Z,24.00
2023-05-05T00:37:23.887Z,22.90
2023-05-05T00:39:50.847Z,25.73
2023-05-05T00:42:17.631Z,22.30
2023-05-05T00:44:44.970Z,19.52
2023-05-05T00:47:12.012Z,20.60
2023-05-05T00:49:38.935Z,21.52
2023-05-05T00:52:07.417Z,22.20
2023-05-05T00:54:37.343Z,19.35
2023-05-05T00:57:04.283Z,23.00
2023-05-05T00:59:31.274Z,21.67
2023-05-05T01:01:58.237Z,25.20
2023-05-05T01:04:26.732Z,21.40
2023-05-05T01:07:11.759Z,20.55
2023-05-05T01:09:47.539Z,18.58
2023-05-05T01:12:23.418Z,21.13
2023-05-05T01:14:57.930Z,25.13
2023-05-05T01:17:27.564Z,21.48
2023-05-05T01:19:59.635Z,24.77
2023-05-05T01:22:28.974Z,26.17
2023-05-05T01:25:27.140Z,24.23
2023-05-05T01:28:39.521Z,19.75
2023-05-05T01:31:09.682Z,19.85
2023-05-05T01:34:00.144Z,20.15
2023-05-05T01:36:31.526Z,19.52
2023-05-05T01:39:00.627Z,20.90
2023-05-05T01:41:33.648Z,19.83
2023-05-05T01:44:01.328Z,21.00
2023-05-05T01:46:28.061Z,19.95
2023-05-05T01:48:54.857Z,17.13
2023-05-05T01:51:22.065Z,18.67
2023-05-05T01:53:50.954Z,17.85
2023-05-05T01:56:17.744Z,19.02
2023-05-05T01:58:45.184Z,22.98
2023-05-05T02:01:12.497Z,17.73
2023-05-05T02:03:39.632Z,18.27
2023-05-05T02:06:06.567Z,21.52
2023-05-05T02:08:33.390Z,18.92
2023-05-05T02:11:00.783Z,19.85
2023-05-05T02:13:27.604Z,16.27
2023-05-05T02:15:54.452Z,17.30
2023-05-05T02:18:22.198Z,19.75
2023-05-05T02:20:49.230Z,19.98
2023-05-05T02:23:15.963Z,20.58
2023-05-05T02:25:44.130Z,16.35
2023-05-05T02:28:28.168Z,16.70
2023-05-05T02:30:59.583Z,16.38
2023-05-05T02:33:26.918Z,16.45
2023-05-05T02:35:54.257Z,18.10
2023-05-05T02:38:21.483Z,18.60
2023-05-05T02:40:48.317Z,20.67
2023-05-05T02:43:16.833Z,17.67
2023-05-05T02:45:43.926Z,19.73
2023-05-05T02:48:12.956Z,18.25
2023-05-05T02:50:39.930Z,18.40
2023-05-05T02:53:06.895Z,22.65
2023-05-05T02:55:51.010Z,17.92
2023-05-05T02:58:23.641Z,17.85
2023-05-05T03:01:00.866Z,19.27
2023-05-05T03:03:54.956Z,17.38
2023-05-05T03:06:22.198Z,19.33
2023-05-05T03:09:08.652Z,16.13
2023-05-05T03:12:00.051Z,19.27
2023-05-05T03:14:27.560Z,22.55
2023-05-05T03:16:54.704Z,19.92
2023-05-05T03:19:21.567Z,20.65
2023-05-05T03:21:48.341Z,17.30
2023-05-05T03:24:17.917Z,20.83
2023-05-05T03:26:45.465Z,20.95
2023-05-05T03:29:12.980Z,18.75
2023-05-05T03:31:39.974Z,20.67
2023-05-05T03:34:07.387Z,18.35
2023-05-05T03:36:35.163Z,17.13
2023-05-05T03:39:01.982Z,24.13
2023-05-05T03:41:28.847Z,16.95
2023-05-05T03:43:55.671Z,16.92
2023-05-05T03:46:22.491Z,16.77
2023-05-05T03:48:49.286Z,15.55
2023-05-05T03:51:16.396Z,17.75
2023-05-05T03:53:43.176Z,17.50
2023-05-05T03:56:10.031Z,19.77
2023-05-05T03:58:36.775Z,17.98
2023-05-05T04:01:03.968Z,20.75
2023-05-05T04:03:31.203Z,19.98
2023-05-05T04:05:58.191Z,19.58
2023-05-05T04:08:25.118Z,22.85
2023-05-05T04:10:51.928Z,13.48
2023-05-05T04:13:18.757Z,13.55
2023-05-05T04:15:46.508Z,13.30
2023-05-05T04:18:13.314Z,14.18
2023-05-05T04:20:40.146Z,14.85
2023-05-05T04:23:07.171Z,18.85
2023-05-05T04:25:34.356Z,17.90
2023-05-05T04:28:01.165Z,17.15
2023-05-05T04:30:27.982Z,11.43
2023-05-05T04:32:54.875Z,10.60
2023-05-05T04:35:22.228Z,12.90
2023-05-05T04:37:49.059Z,9.38
2023-05-05T04:40:16.197Z,11.63
2023-05-05T04:42:43.004Z,8.68
2023-05-05T04:45:10.274Z,7.10
2023-05-05T04:47:38.839Z,13.70
2023-05-05T04:50:06.482Z,11.05
2023-05-05T04:52:33.597Z,6.15
2023-05-05T04:55:01.240Z,7.82
2023-05-05T04:57:28.061Z,7.88
2023-05-05T04:59:54.791Z,6.78
2023-05-05T05:02:21.664Z,7.22
2023-05-05T05:04:48.552Z,13.63
2023-05-05T05:07:15.311Z,8.05
2023-05-05T05:09:42.210Z,10.88
2023-05-05T05:12:09.801Z,9.18
2023-05-05T05:14:38.038Z,8.70
2023-05-05T05:17:05.533Z,7.70
2023-05-05T05:19:32.382Z,10.07
2023-05-05T05:21:59.194Z,11.25
2023-05-05T05:24:26.324Z,12.00
2023-05-05T05:26:53.100Z,10.57
2023-05-05T05:29:20.520Z,12.75
2023-05-05T05:31:47.426Z,14.25
2023-05-05T05:34:14.169Z,8.57
2023-05-05T05:36:41.015Z,12.20
2023-05-05T05:39:08.149Z,10.50
2023-05-05T05:41:34.933Z,9.75
2023-05-05T05:44:01.768Z,8.45
2023-05-05T05:46:28.584Z,14.82
2023-05-05T05:48:55.493Z,10.63
2023-05-05T05:51:22.368Z,8.38
2023-05-05T05:53:49.326Z,9.60
2023-05-05T05:56:16.074Z,10.05
2023-05-05T05:58:42.935Z,8.48
2023-05-05T06:01:09.818Z,7.20
2023-05-05T06:03:36.679Z,7.75
2023-05-05T06:06:03.677Z,8.07
2023-05-05T06:08:30.629Z,9.70
2023-05-05T06:10:57.401Z,9.60
2023-05-05T06:13:24.155Z,12.20
2023-05-05T06:15:50.991Z,7.40
2023-05-05T06:18:17.974Z,7.80
2023-05-05T06:20:44.898Z,6.88
2023-05-05T06:23:11.726Z,9.35
2023-05-05T06:25:38.454Z,7.65
2023-05-05T06:28:05.612Z,7.15
2023-05-05T06:30:32.876Z,6.55
2023-05-05T06:32:59.948Z,7.15
2023-05-05T06:35:26.869Z,7.28
2023-05-05T06:37:54.082Z,7.03
2023-05-05T06:40:21.108Z,6.35
2023-05-05T06:42:47.931Z,7.97
2023-05-05T06:45:15.392Z,15.98
2023-05-05T06:47:42.614Z,9.60
2023-05-05T06:50:10.268Z,4.65
2023-05-05T06:52:37.315Z,8.02
2023-05-05T06:55:04.619Z,6.57
2023-05-05T06:57:31.376Z,6.93
2023-05-05T06:59:58.141Z,3.92
2023-05-05T07:02:26.639Z,6.53
2023-05-05T07:04:55.606Z,9.40
2023-05-05T07:07:22.705Z,8.38
2023-05-05T07:09:49.537Z,5.97
2023-05-05T07:12:16.391Z,10.05
2023-05-05T07:14:43.354Z,8.65
2023-05-05T07:17:11.415Z,7.50
2023-05-05T07:19:38.345Z,9.80
2023-05-05T07:22:05.289Z,11.38
2023-05-05T07:24:32.065Z,7.47
2023-05-05T07:26:59.278Z,6.03
2023-05-05T07:29:26.105Z,10.75
2023-05-05T07:31:52.989Z,8.35
2023-05-05T07:34:19.836Z,9.23
2023-05-05T07:36:46.686Z,5.28
2023-05-05T07:39:19.859Z,7.75
2023-05-05T07:41:46.590Z,9.02
2023-05-05T07:44:13.472Z,12.05
2023-05-05T07:46:40.417Z,9.35
2023-05-05T07:49:07.681Z,9.32
2023-05-05T07:51:35.060Z,16.40
2023-05-05T07:54:01.934Z,8.48
2023-05-05T07:56:28.816Z,5.82
2023-05-05T07:58:55.729Z,7.63
2023-05-05T08:01:22.763Z,6.95
2023-05-05T08:03:49.630Z,6.70
2023-05-05T08:06:17.948Z,6.15
2023-05-05T08:08:44.754Z,5.22
2023-05-05T08:11:11.548Z,8.75
2023-05-05T08:13:39.142Z,10.25
2023-05-05T08:16:06.352Z,15.50
2023-05-05T08:18:34.505Z,5.82
2023-05-05T08:21:01.268Z,6.88
2023-05-05T08:23:27.973Z,9.93
2023-05-05T08:25:54.754Z,8.85
2023-05-05T08:28:21.532Z,8.63
2023-05-05T08:30:49.499Z,6.53
2023-05-05T08:33:16.371Z,13.90
2023-05-05T08:35:43.364Z,10.85
2023-05-05T08:38:11.286Z,7.50
2023-05-05T08:40:39.432Z,12.93
2023-05-05T08:43:06.333Z,8.57
2023-05-05T08:45:33.259Z,10.23
2023-05-05T08:48:04.390Z,13.70
2023-05-05T08:50:31.429Z,8.80
2023-05-05T08:53:16.923Z,10.05
2023-05-05T08:55:54.315Z,7.57
2023-05-05T08:58:24.616Z,12.27
2023-05-05T09:00:52.454Z,8.05
2023-05-05T09:03:19.288Z,8.07
2023-05-05T09:05:46.226Z,8.43
2023-05-05T09:08:13.054Z,10.32
2023-05-05T09:10:42.760Z,11.23
2023-05-05T09:13:09.660Z,9.07
2023-05-05T09:15:38.848Z,10.38
2023-05-05T09:18:08.914Z,7.80
2023-05-05T09:20:36.662Z,12.77
2023-05-05T09:23:12.978Z,13.80
2023-05-05T09:25:40.749Z,10.90
2023-05-05T09:28:14.860Z,14.18
2023-05-05T09:30:42.796Z,12.15
2023-05-05T09:33:09.720Z,10.52
2023-05-05T09:35:53.284Z,14.07
2023-05-05T09:38:20.633Z,10.65
2023-05-05T09:40:48.268Z,8.68
2023-05-05T09:43:15.935Z,6.53
2023-05-05T09:45:43.226Z,5.32
2023-05-05T09:48:29.617Z,8.02
2023-05-05T09:50:56.830Z,12.13
2023-05-05T09:53:24.097Z,8.85
2023-05-05T09:55:58.082Z,13.70
2023-05-05T09:58:28.815Z,8.40
2023-05-05T10:00:56.687Z,6.30
2023-05-05T10:03:23.762Z,13.15
2023-05-05T10:05:54.193Z,11.90
2023-05-05T10:08:22.549Z,9.02
2023-05-05T10:11:07.358Z,8.23
2023-05-05T10:13:40.244Z,11.38
2023-05-05T10:16:08.254Z,13.40
2023-05-05T10:18:35.066Z,8.48
2023-05-05T10:21:03.285Z,14.35
2023-05-05T10:23:50.377Z,10.23
2023-05-05T10:26:17.526Z,10.13
2023-05-05T10:28:51.030Z,6.15
2023-05-05T10:31:25.854Z,6.70
2023-05-05T10:34:22.005Z,9.95
2023-05-05T10:36:49.400Z,8.70
2023-05-05T10:39:16.343Z,11.45
2023-05-05T10:41:43.188Z,10.63
2023-05-05T10:44:10.782Z,14.77
2023-05-05T10:46:38.082Z,7.43
2023-05-05T10:49:07.552Z,9.27
2023-05-05T10:51:55.841Z,6.85
2023-05-05T10:54:34.622Z,10.32
2023-05-05T10:57:04.607Z,11.65
2023-05-05T10:59:37.910Z,7.97
2023-05-05T11:02:24.376Z,6.95
2023-05-05T11:05:08.272Z,7.28
2023-05-05T11:07:35.548Z,6.15
2023-05-05T11:10:03.907Z,4.63
2023-05-05T11:12:31.699Z,20.25
2023-05-05T11:15:27.666Z,6.30
2023-05-05T11:18:07.403Z,10.40
2023-05-05T11:20:40.649Z,8.55
2023-05-05T11:23:07.561Z,6.70
2023-05-05T11:25:37.533Z,7.38
2023-05-05T11:28:09.074Z,8.55
2023-05-05T11:30:57.548Z,10.82
2023-05-05T11:33:37.729Z,13.85
2023-05-05T11:36:11.870Z,9.30
2023-05-05T11:38:47.593Z,11.35
2023-05-05T11:41:34.733Z,5.75
2023-05-05T11:44:10.985Z,12.48
2023-05-05T11:46:41.727Z,15.65
2023-05-05T11:49:09.408Z,9.50
2023-05-05T11:51:36.318Z,16.15
2023-05-05T11:54:03.183Z,6.95
2023-05-05T11:56:30.038Z,14.13
2023-05-05T11:59:08.646Z,13.65
2023-05-05T12:01:39.290Z,8.63
2023-05-05T12:04:06.609Z,14.35
2023-05-05T12:06:34.088Z,15.55
2023-05-05T12:09:01.177Z,9.40
2023-05-05T12:11:28.024Z,21.00
2023-05-05T12:14:12.914Z,12.50
2023-05-05T12:16:39.856Z,12.35
2023-05-05T12:19:07.964Z,11.15
2023-05-05T12:21:35.193Z,8.10
2023-05-05T12:24:02.082Z,8.80
2023-05-05T12:26:29.763Z,9.13
2023-05-05T12:28:59.713Z,10.00
2023-05-05T12:31:36.150Z,11.75
2023-05-05T12:34:03.806Z,11.00
2023-05-05T12:36:30.861Z,7.07
2023-05-05T12:38:57.653Z,10.48
2023-05-05T12:41:24.514Z,11.35
2023-05-05T12:43:58.375Z,13.27
2023-05-05T12:46:25.669Z,10.93
2023-05-05T12:49:04.789Z,6.50
2023-05-05T12:51:54.904Z,10.35
2023-05-05T12:54:23.824Z,7.68
2023-05-05T12:56:50.627Z,11.52
2023-05-05T12:59:23.415Z,5.60
2023-05-05T13:01:54.910Z,16.63
2023-05-05T13:04:25.936Z,12.70
2023-05-05T13:07:12.517Z,8.63
2023-05-05T13:09:39.570Z,7.75
2023-05-05T13:12:08.513Z,10.55
2023-05-05T13:14:36.408Z,8.23
2023-05-05T13:17:03.236Z,5.60
2023-05-05T13:19:30.147Z,9.27
2023-05-05T13:21:57.602Z,14.88
2023-05-05T13:24:38.021Z,10.38
2023-05-05T13:27:09.576Z,13.85
2023-05-05T13:29:36.421Z,11.75
2023-05-05T13:32:03.265Z,7.50
2023-05-05T13:34:30.156Z,6.53
2023-05-05T13:36:56.997Z,5.45
2023-05-05T13:39:23.809Z,7.85
2023-05-05T13:41:50.662Z,9.00
2023-05-05T13:44:17.551Z,11.95
2023-05-05T13:46:44.451Z,8.40
2023-05-05T13:49:11.337Z,11.00
2023-05-05T13:51:38.951Z,12.80
2023-05-05T13:54:06.733Z,11.50
2023-05-05T13:56:34.301Z,17.60
2023-05-05T13:59:01.306Z,14.88
2023-05-05T14:01:28.253Z,17.85
2023-05-05T14:03:56.985Z,11.18
2023-05-05T14:06:24.407Z,20.40
2023-05-05T14:08:51.715Z,11.25
2023-05-05T14:11:20.658Z,6.55
2023-05-05T14:13:48.240Z,7.93
2023-05-05T14:16:15.330Z,6.05
2023-05-05T14:18:42.534Z,10.32
2023-05-05T14:21:09.459Z,13.15
2023-05-05T14:23:36.344Z,16.80
2023-05-05T14:26:03.208Z,19.17
2023-05-05T14:28:30.075Z,14.52
2023-05-05T14:30:57.026Z,10.32
2023-05-05T14:33:23.891Z,9.93
2023-05-05T14:35:50.701Z,11.68
2023-05-05T14:38:17.719Z,9.55
2023-05-05T14:40:44.557Z,9.00
2023-05-05T14:43:11.366Z,6.72
2023-05-05T14:45:38.213Z,11.43
2023-05-05T14:48:05.192Z,11.07
2023-05-05T14:50:31.987Z,7.43
2023-05-05T14:52:58.811Z,10.68
2023-05-05T14:55:26.140Z,10.35
2023-05-05T14:57:52.971Z,5.25
2023-05-05T15:00:19.909Z,7.13
2023-05-05T15:02:48.327Z,6.95
2023-05-05T15:05:15.585Z,4.85
2023-05-05T15:07:42.380Z,7.40
2023-05-05T15:10:09.692Z,5.28
2023-05-05T15:12:36.630Z,19.50
2023-05-05T15:15:03.571Z,20.25
2023-05-05T15:17:31.823Z,9.00
2023-05-05T15:19:58.879Z,6.20
2023-05-05T15:22:26.006Z,17.77
2023-05-05T15:24:53.195Z,11.88
2023-05-05T15:27:20.169Z,10.38
2023-05-05T15:29:47.065Z,8.55
2023-05-05T15:32:14.035Z,10.25
2023-05-05T15:34:40.976Z,9.40
2023-05-05T15:37:07.827Z,9.90
2023-05-05T15:39:34.703Z,8.18
2023-05-05T15:42:04.927Z,11.18
2023-05-05T15:44:31.947Z,8.65
2023-05-05T15:46:58.806Z,19.98
2023-05-05T15:49:25.748Z,9.23
2023-05-05T15:51:52.664Z,14.57
2023-05-05T15:54:19.588Z,10.43
2023-05-05T15:56:46.404Z,9.77
2023-05-05T15:59:13.464Z,11.80
2023-05-05T16:01:40.468Z,10.55
2023-05-05T16:04:07.466Z,13.10
2023-05-05T16:06:34.277Z,15.85
2023-05-05T16:09:01.122Z,11.20
2023-05-05T16:11:28.187Z,11.32
2023-05-05T16:13:55.231Z,16.65
2023-05-05T16:16:22.158Z,9.38
2023-05-05T16:18:49.127Z,21.33
2023-05-05T16:21:16.138Z,13.05
2023-05-05T16:23:43.412Z,13.02
2023-05-05T16:26:10.715Z,12.70
2023-05-05T16:28:37.756Z,14.25
2023-05-05T16:31:04.715Z,8.15
2023-05-05T16:33:31.669Z,10.25
2023-05-05T16:35:58.587Z,9.27
2023-05-05T16:38:25.482Z,16.27
2023-05-05T16:40:52.404Z,13.45
2023-05-05T16:43:19.622Z,14.60
2023-05-05T16:45:46.774Z,16.58
2023-05-05T16:48:14.748Z,12.15
2023-05-05T16:50:41.706Z,18.25
2023-05-05T16:53:09.201Z,14.77
2023-05-05T16:55:36.085Z,16.42
2023-05-05T16:58:03.229Z,16.10
2023-05-05T17:00:30.287Z,15.13
2023-05-05T17:02:57.161Z,17.63
2023-05-05T17:05:24.020Z,11.30
2023-05-05T17:07:51.033Z,23.73
2023-05-05T17:10:17.874Z,15.95
2023-05-05T17:12:44.704Z,13.85
2023-05-05T17:15:11.685Z,27.48
2023-05-05T17:17:39.310Z,8.07
2023-05-05T17:20:08.384Z,12.18
2023-05-05T17:22:35.202Z,14.30
2023-05-05T17:25:02.070Z,15.85
2023-05-05T17:27:28.821Z,14.15
2023-05-05T17:29:56.321Z,17.42
2023-05-05T17:32:23.402Z,18.60
2023-05-05T17:34:50.210Z,10.50
2023-05-05T17:37:16.996Z,15.68
2023-05-05T17:39:43.831Z,15.77
2023-05-05T17:42:10.861Z,18.70
2023-05-05T17:44:37.658Z,17.52
2023-05-05T17:47:07.688Z,21.98
2023-05-05T17:49:34.864Z,16.80
2023-05-05T17:52:01.676Z,20.92
2023-05-05T17:54:28.520Z,12.65
2023-05-05T17:56:55.368Z,20.77
2023-05-05T17:59:22.226Z,17.25
2023-05-05T18:01:49.204Z,22.33
2023-05-05T18:04:16.223Z,18.33
2023-05-05T18:06:43.102Z,19.98
2023-05-05T18:09:11.262Z,17.23
2023-05-05T18:11:38.268Z,29.33
2023-05-05T18:14:05.140Z,12.63
2023-05-05T18:16:32.013Z,32.22
2023-05-05T18:18:58.801Z,23.38
2023-05-05T18:21:25.881Z,26.70
2023-05-05T18:23:57.323Z,14.07
2023-05-05T18:26:28.695Z,21.05
2023-05-05T18:28:55.470Z,29.25
2023-05-05T18:31:22.356Z,28.88
2023-05-05T18:33:49.182Z,29.40
2023-05-05T18:36:16.211Z,24.25
2023-05-05T18:38:43.152Z,26.38
2023-05-05T18:41:09.949Z,25.88
2023-05-05T18:43:36.776Z,27.58
2023-05-05T18:46:03.643Z,28.95
2023-05-05T18:48:30.716Z,34.13
2023-05-05T18:51:04.012Z,34.22
2023-05-05T18:53:31.831Z,23.75
2023-05-05T18:55:59.248Z,20.90
2023-05-05T18:58:26.670Z,21.48
2023-05-05T19:00:53.737Z,19.90
2023-05-05T19:03:20.608Z,24.83
2023-05-05T19:05:47.406Z,28.88
2023-05-05T19:08:14.214Z,18.25
2023-05-05T19:10:41.565Z,27.92
2023-05-05T19:13:09.542Z,25.25
2023-05-05T19:15:36.420Z,27.90
2023-05-05T19:18:03.392Z,22.23
2023-05-05T19:20:31.748Z,33.60
2023-05-05T19:23:03.573Z,30.30
2023-05-05T19:25:30.992Z,28.73
2023-05-05T19:27:58.016Z,37.95
2023-05-05T19:30:24.875Z,41.63
2023-05-05T19:32:54.315Z,44.22
2023-05-05T19:35:21.271Z,32.78
2023-05-05T19:37:48.176Z,31.98
2023-05-05T19:40:14.975Z,21.38
2023-05-05T19:42:41.957Z,15.55
2023-05-05T19:45:08.990Z,17.60
2023-05-05T19:47:36.336Z,25.48
2023-05-05T19:50:03.266Z,20.65
2023-05-05T19:52:30.297Z,22.42
2023-05-05T19:54:58.406Z,20.63
2023-05-05T19:57:25.244Z,18.13
2023-05-05T19:59:52.040Z,17.70
2023-05-05T20:02:20.309Z,19.13
2023-05-05T20:04:47.271Z,17.50
2023-05-05T20:07:15.606Z,17.90
2023-05-05T20:09:42.925Z,14.80
2023-05-05T20:12:09.770Z,19.30
2023-05-05T20:14:36.673Z,15.57
2023-05-05T20:17:03.564Z,16.17
2023-05-05T20:19:30.471Z,19.90
2023-05-05T20:21:57.265Z,16.42
2023-05-05T20:24:24.066Z,16.35
2023-05-05T20:26:50.913Z,14.20
2023-05-05T20:29:19.613Z,15.10
2023-05-05T20:31:47.833Z,15.85
2023-05-05T20:34:14.950Z,13.70
2023-05-05T20:36:41.797Z,17.52
2023-05-05T20:39:08.613Z,17.65
2023-05-05T20:41:36.668Z,16.08
2023-05-05T20:44:03.453Z,17.60
2023-05-05T20:46:30.314Z,20.02
2023-05-05T20:48:57.233Z,19.65
2023-05-05T20:51:24.032Z,19.20
2023-05-05T20:53:50.874Z,14.48
2023-05-05T20:56:17.874Z,18.63
2023-05-05T20:58:44.706Z,17.52
2023-05-05T21:01:12.074Z,20.30
2023-05-05T21:03:39.048Z,18.92
2023-05-05T21:06:06.118Z,21.02
2023-05-05T21:08:32.982Z,17.83
2023-05-05T21:10:59.778Z,17.90
2023-05-05T21:13:26.618Z,17.30
2023-05-05T21:15:53.461Z,17.90
2023-05-05T21:18:20.309Z,17.17
2023-05-05T21:20:47.166Z,14.07
2023-05-05T21:23:13.989Z,20.48
2023-05-05T21:25:40.818Z,23.27
2023-05-05T21:28:07.685Z,19.40
2023-05-05T21:30:34.479Z,18.15
2023-05-05T21:33:01.351Z,15.95
2023-05-05T21:35:28.224Z,17.85
2023-05-05T21:37:54.978Z,20.08
2023-05-05T21:40:21.832Z,18.63
2023-05-05T21:42:48.599Z,19.70
2023-05-05T21:45:15.371Z,21.35
2023-05-05T21:47:42.351Z,17.17
2023-05-05T21:50:10.235Z,17.13
2023-05-05T21:52:37.251Z,21.45
2023-05-05T21:55:04.515Z,19.60
2023-05-05T21:57:31.305Z,17.85
2023-05-05T21:59:58.123Z,15.35
2023-05-05T22:02:25.061Z,20.45
2023-05-05T22:04:52.091Z,21.30
2023-05-05T22:07:19.086Z,24.13
2023-05-05T22:09:46.241Z,21.55
2023-05-05T22:12:13.171Z,21.50
2023-05-05T22:14:40.108Z,21.42
2023-05-05T22:17:07.050Z,25.42
2023-05-05T22:19:33.870Z,24.88
2023-05-05T22:22:00.744Z,20.60
2023-05-05T22:24:27.553Z,19.02
2023-05-05T22:26:54.588Z,21.52
2023-05-05T22:29:21.369Z,23.33
2023-05-05T22:31:48.321Z,20.80
2023-05-05T22:34:15.196Z,18.10
2023-05-05T22:36:42.278Z,20.63
2023-05-05T22:39:09.172Z,19.02
2023-05-05T22:41:36.092Z,19.23
2023-05-05T22:44:02.920Z,19.42
2023-05-05T22:46:29.826Z,19.83
2023-05-05T22:48:56.656Z,21.05
2023-05-05T22:51:23.480Z,18.08
2023-05-05T22:53:50.400Z,21.33
2023-05-05T22:56:17.207Z,24.75
2023-05-05T22:58:44.025Z,20.33
2023-05-05T23:01:10.977Z,21.13
2023-05-05T23:03:37.761Z,17.65
2023-05-05T23:06:04.544Z,21.08
2023-05-05T23:08:31.358Z,18.63
2023-05-05T23:10:58.319Z,19.80
2023-05-05T23:13:25.175Z,21.50
2023-05-05T23:15:52.609Z,21.10
2023-05-05T23:18:19.410Z,20.35
2023-05-05T23:20:46.297Z,18.73
2023-05-05T23:23:13.097Z,21.92
2023-05-05T23:25:39.874Z,19.67
2023-05-05T23:28:06.664Z,21.02
2023-05-05T23:30:33.690Z,23.02
2023-05-05T23:33:01.260Z,19.25
2023-05-05T23:35:28.178Z,19.05
2023-05-05T23:37:55.163Z,20.13
2023-05-05T23:40:22.343Z,21.85
2023-05-05T23:42:49.210Z,21.30
2023-05-05T23:45:18.086Z,17.70
2023-05-05T23:47:46.098Z,20.60
2023-05-05T23:50:12.934Z,23.63
2023-05-05T23:52:39.729Z,21.45
2023-05-05T23:55:07.331Z,19.08
2023-05-05T23:57:35.335Z,22.13
